createdAt,value
2023-01-27T00:01:51.995Z,28.03
2023-01-27T00:04:20.710Z,26.23
2023-01-27T00:06:49.366Z,26.90
2023-01-27T00:09:18.279Z,24.27
2023-01-27T00:12:04.244Z,30.43
2023-01-27T00:14:32.968Z,27.23
2023-01-27T00:17:03.064Z,30.07
2023-01-27T00:19:31.670Z,34.17
2023-01-27T00:22:17.522Z,29.37
2023-01-27T00:24:46.269Z,32.40
2023-01-27T00:27:14.899Z,29.50
2023-01-27T00:29:43.902Z,33.17
2023-01-27T00:32:31.389Z,31.03
2023-01-27T00:35:00.034Z,29.20
2023-01-27T00:37:28.739Z,29.70
2023-01-27T00:39:57.414Z,29.67
2023-01-27T00:42:26.169Z,32.33
2023-01-27T00:45:12.500Z,32.43
2023-01-27T00:47:42.648Z,33.10
2023-01-27T00:50:12.726Z,34.00
2023-01-27T00:52:43.099Z,31.60
2023-01-27T00:55:15.992Z,30.03
2023-01-27T00:57:45.646Z,32.53
2023-01-27T01:00:16.953Z,26.33
2023-01-27T01:02:47.227Z,33.27
2023-01-27T01:05:16.160Z,30.80
2023-01-27T01:07:44.835Z,31.33
2023-01-27T01:10:13.802Z,31.27
2023-01-27T01:12:42.694Z,34.60
2023-01-27T01:15:12.455Z,30.80
2023-01-27T01:17:41.254Z,29.63
2023-01-27T01:20:13.820Z,30.80
2023-01-27T01:22:42.738Z,34.90
2023-01-27T01:25:11.565Z,31.03
2023-01-27T01:27:40.316Z,32.77
2023-01-27T01:30:11.411Z,29.13
2023-01-27T01:32:40.390Z,29.90
2023-01-27T01:35:11.415Z,32.60
2023-01-27T01:37:41.643Z,34.23
2023-01-27T01:40:13.732Z,29.70
2023-01-27T01:42:58.418Z,36.57
2023-01-27T01:45:54.436Z,36.87
2023-01-27T01:48:32.292Z,34.07
2023-01-27T01:51:10.686Z,33.20
2023-01-27T01:53:47.618Z,34.47
2023-01-27T01:56:25.245Z,35.13
2023-01-27T01:59:02.426Z,38.47
2023-01-27T02:01:31.318Z,37.17
2023-01-27T02:04:05.793Z,32.27
2023-01-27T02:06:50.110Z,34.20
2023-01-27T02:09:21.923Z,33.23
2023-01-27T02:11:51.168Z,37.23
2023-01-27T02:14:20.314Z,37.77
2023-01-27T02:16:49.235Z,34.53
2023-01-27T02:19:29.244Z,38.07
2023-01-27T02:22:01.831Z,36.43
2023-01-27T02:24:42.268Z,37.53
2023-01-27T02:27:14.330Z,32.07
2023-01-27T02:29:43.048Z,38.80
2023-01-27T02:32:25.090Z,39.43
2023-01-27T02:34:58.757Z,31.30
2023-01-27T02:37:28.096Z,37.63
2023-01-27T02:40:01.311Z,34.30
2023-01-27T02:42:31.820Z,36.37
2023-01-27T02:45:01.010Z,33.90
2023-01-27T02:47:29.748Z,31.70
2023-01-27T02:49:58.465Z,32.87
2023-01-27T02:52:27.558Z,30.47
2023-01-27T02:54:56.368Z,34.70
2023-01-27T02:57:25.503Z,36.23
2023-01-27T03:00:13.927Z,31.53
2023-01-27T03:02:42.684Z,33.60
2023-01-27T03:11:08.026Z,32.13
2023-01-27T03:13:38.244Z,32.67
2023-01-27T03:16:27.233Z,32.03
2023-01-27T03:18:56.841Z,29.27
2023-01-27T03:21:25.997Z,31.77
2023-01-27T03:23:55.490Z,33.80
2023-01-27T03:26:25.651Z,31.07
2023-01-27T03:29:12.459Z,30.87
2023-01-27T03:31:46.089Z,28.73
2023-01-27T03:34:16.064Z,29.50
2023-01-27T03:37:11.348Z,31.60
2023-01-27T03:39:57.467Z,28.43
2023-01-27T03:42:43.597Z,28.77
2023-01-27T03:45:30.123Z,30.07
2023-01-27T03:48:00.787Z,28.40
2023-01-27T03:50:42.205Z,27.33
2023-01-27T03:53:11.667Z,28.20
2023-01-27T03:55:40.834Z,27.73
2023-01-27T03:58:21.487Z,29.13
2023-01-27T04:00:54.047Z,31.67
2023-01-27T04:03:44.603Z,31.97
2023-01-27T04:06:34.281Z,26.10
2023-01-27T04:09:03.516Z,27.43
2023-01-27T04:11:46.483Z,26.63
2023-01-27T04:14:16.164Z,27.47
2023-01-27T04:16:45.323Z,31.33
2023-01-27T04:19:15.909Z,25.80
2023-01-27T04:21:45.845Z,26.73
2023-01-27T04:24:22.713Z,29.83
2023-01-27T04:26:58.197Z,25.83
2023-01-27T04:29:28.993Z,24.17
2023-01-27T04:31:59.090Z,21.53
2023-01-27T04:34:31.513Z,23.53
2023-01-27T04:37:01.598Z,26.07
2023-01-27T04:39:31.020Z,25.97
2023-01-27T04:42:00.627Z,24.60
2023-01-27T04:44:32.270Z,26.50
2023-01-27T04:47:01.900Z,27.73
2023-01-27T04:49:32.574Z,28.97
2023-01-27T04:52:01.914Z,26.00
2023-01-27T04:54:31.378Z,27.57
2023-01-27T04:57:04.385Z,25.93
2023-01-27T04:59:33.876Z,28.20
2023-01-27T05:02:04.872Z,31.77
2023-01-27T05:04:35.870Z,30.13
2023-01-27T05:07:06.049Z,28.97
2023-01-27T05:09:35.554Z,29.27
2023-01-27T05:17:07.517Z,27.37
2023-01-27T05:19:35.166Z,28.20
2023-01-27T05:22:03.075Z,30.13
2023-01-27T05:24:30.745Z,27.93
2023-01-27T05:26:58.560Z,24.43
2023-01-27T05:29:26.454Z,24.13
2023-01-27T05:31:54.639Z,24.50
2023-01-27T05:39:28.814Z,21.50
2023-01-27T05:42:00.542Z,23.73
2023-01-27T05:44:32.462Z,23.70
2023-01-27T05:47:03.345Z,25.03
2023-01-27T05:49:31.542Z,20.80
2023-01-27T05:52:02.478Z,23.43
2023-01-27T05:59:51.578Z,18.77
2023-01-27T06:02:19.322Z,18.93
2023-01-27T06:04:47.914Z,15.80
2023-01-27T06:07:15.479Z,17.47
2023-01-27T06:09:43.029Z,17.87
2023-01-27T06:12:10.459Z,20.03
2023-01-27T06:14:39.106Z,18.10
2023-01-27T06:17:09.463Z,23.80
2023-01-27T06:19:38.147Z,25.97
2023-01-27T06:22:06.874Z,24.80
2023-01-27T06:24:35.629Z,25.57
2023-01-27T06:27:04.341Z,26.73
2023-01-27T06:29:33.027Z,23.83
2023-01-27T06:32:01.713Z,24.73
2023-01-27T06:34:31.902Z,20.70
2023-01-27T06:37:00.650Z,19.60
2023-01-27T06:39:29.303Z,22.63
2023-01-27T06:41:57.937Z,21.77
2023-01-27T06:44:26.646Z,19.70
2023-01-27T06:46:55.361Z,14.97
2023-01-27T06:49:24.003Z,19.03
2023-01-27T06:51:54.821Z,18.47
2023-01-27T06:54:23.713Z,17.43
2023-01-27T06:56:52.463Z,16.87
2023-01-27T06:59:21.102Z,15.47
2023-01-27T07:01:50.079Z,16.27
2023-01-27T07:04:18.781Z,17.93
2023-01-27T07:06:47.435Z,19.10
2023-01-27T07:09:18.176Z,18.13
2023-01-27T07:11:46.860Z,17.27
2023-01-27T07:14:15.557Z,16.57
2023-01-27T07:16:44.274Z,17.03
2023-01-27T07:19:13.591Z,20.77
2023-01-27T07:21:42.275Z,15.40
2023-01-27T07:24:11.279Z,19.67
2023-01-27T07:26:41.285Z,18.40
2023-01-27T07:29:10.528Z,18.73
2023-01-27T07:31:39.224Z,17.00
2023-01-27T07:34:08.003Z,17.53
2023-01-27T07:36:36.753Z,16.43
2023-01-27T07:39:05.653Z,17.40
2023-01-27T07:41:34.794Z,15.13
2023-01-27T07:44:05.728Z,20.07
2023-01-27T07:46:35.974Z,18.93
2023-01-27T07:49:04.797Z,20.10
2023-01-27T07:51:33.433Z,18.50
2023-01-27T07:54:02.287Z,17.70
2023-01-27T07:56:32.326Z,18.80
2023-01-27T07:59:01.203Z,18.97
2023-01-27T08:01:31.984Z,18.80
2023-01-27T08:04:01.025Z,20.80
2023-01-27T08:06:29.790Z,20.93
2023-01-27T08:08:58.582Z,21.37
2023-01-27T08:11:27.497Z,21.33
2023-01-27T08:13:56.163Z,22.60
2023-01-27T08:16:24.888Z,22.17
2023-01-27T08:18:56.705Z,17.13
2023-01-27T08:21:26.046Z,18.93
2023-01-27T08:23:55.906Z,16.23
2023-01-27T08:26:24.605Z,16.67
2023-01-27T08:28:53.755Z,19.00
2023-01-27T08:31:22.676Z,16.23
2023-01-27T08:33:56.283Z,18.23
2023-01-27T08:36:26.210Z,15.73
2023-01-27T08:38:55.024Z,16.33
2023-01-27T08:41:26.397Z,18.37
2023-01-27T08:43:56.591Z,20.77
2023-01-27T08:46:25.311Z,24.57
2023-01-27T08:48:55.465Z,22.07
2023-01-27T08:51:24.202Z,20.33
2023-01-27T08:53:53.011Z,23.03
2023-01-27T08:56:22.076Z,23.83
2023-01-27T08:58:52.416Z,26.07
2023-01-27T09:01:22.121Z,21.80
2023-01-27T09:03:51.262Z,23.33
2023-01-27T09:06:22.874Z,23.70
2023-01-27T09:09:11.205Z,23.47
2023-01-27T09:11:44.661Z,19.43
2023-01-27T09:14:14.456Z,20.23
2023-01-27T09:16:43.155Z,20.63
2023-01-27T09:19:11.868Z,21.77
2023-01-27T09:21:42.028Z,21.10
2023-01-27T09:24:11.386Z,22.37
2023-01-27T09:26:40.167Z,20.03
2023-01-27T09:29:08.933Z,18.63
2023-01-27T09:31:37.665Z,20.37
2023-01-27T09:34:06.490Z,22.07
2023-01-27T09:36:41.690Z,23.17
2023-01-27T09:39:14.201Z,28.63
2023-01-27T09:42:23.691Z,23.40
2023-01-27T09:45:19.792Z,23.73
2023-01-27T09:48:15.110Z,25.00
2023-01-27T09:50:56.862Z,22.93
2023-01-27T09:53:57.328Z,18.83
2023-01-27T09:56:44.733Z,19.80
2023-01-27T09:59:41.001Z,18.83
2023-01-27T10:02:32.109Z,18.70
2023-01-27T10:05:26.304Z,15.97
2023-01-27T10:08:32.379Z,15.40
2023-01-27T10:11:20.024Z,16.40
2023-01-27T10:14:11.585Z,17.97
2023-01-27T10:17:12.136Z,17.40
2023-01-27T10:20:07.247Z,16.47
2023-01-27T10:22:51.796Z,17.80
2023-01-27T10:25:38.519Z,15.73
2023-01-27T10:28:15.200Z,16.27
2023-01-27T10:30:59.984Z,15.73
2023-01-27T10:33:45.908Z,20.23
2023-01-27T10:36:28.027Z,16.37
2023-01-27T10:39:19.391Z,16.37
2023-01-27T10:42:01.368Z,19.00
2023-01-27T10:44:54.902Z,16.50
2023-01-27T10:47:42.677Z,17.90
2023-01-27T10:50:19.246Z,19.57
2023-01-27T10:52:56.489Z,20.70
2023-01-27T10:55:37.841Z,17.53
2023-01-27T10:58:20.280Z,16.50
2023-01-27T11:01:19.924Z,21.70
2023-01-27T11:03:52.721Z,22.60
2023-01-27T11:06:26.967Z,18.93
2023-01-27T11:09:14.984Z,25.17
2023-01-27T11:11:46.566Z,18.30
2023-01-27T11:14:26.877Z,18.80
2023-01-27T11:17:02.931Z,21.10
2023-01-27T11:19:45.656Z,22.30
2023-01-27T11:22:27.982Z,22.03
2023-01-27T11:25:08.941Z,21.53
2023-01-27T11:28:06.960Z,19.73
2023-01-27T11:30:48.308Z,20.57
2023-01-27T11:33:28.804Z,24.03
2023-01-27T11:35:58.949Z,21.17
2023-01-27T11:38:27.799Z,24.10
2023-01-27T11:40:56.624Z,22.10
2023-01-27T11:43:29.093Z,23.87
2023-01-27T11:46:04.658Z,23.17
2023-01-27T11:48:41.329Z,23.67
2023-01-27T11:51:24.389Z,23.43
2023-01-27T11:54:06.784Z,24.73
2023-01-27T11:56:39.075Z,19.77
2023-01-27T11:59:14.839Z,25.67
2023-01-27T12:01:52.976Z,25.53
2023-01-27T12:04:31.526Z,24.17
2023-01-27T12:07:13.981Z,25.63
2023-01-27T12:09:43.798Z,22.80
2023-01-27T12:12:25.883Z,26.27
2023-01-27T12:14:57.840Z,29.17
2023-01-27T12:17:34.380Z,24.80
2023-01-27T12:20:19.716Z,23.37
2023-01-27T12:22:55.082Z,25.27
2023-01-27T12:25:29.100Z,25.87
2023-01-27T12:28:03.923Z,31.57
2023-01-27T12:30:38.289Z,22.53
2023-01-27T12:33:26.385Z,25.50
2023-01-27T12:36:01.403Z,25.00
2023-01-27T12:38:38.012Z,25.10
2023-01-27T12:41:09.551Z,27.43
2023-01-27T12:43:54.751Z,28.57
2023-01-27T12:46:27.402Z,28.03
2023-01-27T12:49:04.025Z,27.63
2023-01-27T12:51:45.042Z,28.40
2023-01-27T12:54:23.435Z,28.37
2023-01-27T12:56:54.591Z,27.33
2023-01-27T12:59:26.861Z,25.77
2023-01-27T13:02:03.189Z,26.23
2023-01-27T13:04:32.505Z,25.10
2023-01-27T13:07:09.604Z,27.27
2023-01-27T13:09:52.013Z,26.03
2023-01-27T13:12:24.766Z,26.43
2023-01-27T13:14:57.966Z,27.50
2023-01-27T13:17:38.555Z,27.33
2023-01-27T13:20:20.245Z,30.63
2023-01-27T13:22:52.995Z,29.20
2023-01-27T13:25:29.492Z,28.10
2023-01-27T13:28:02.151Z,26.77
2023-01-27T13:30:37.493Z,48.30
2023-01-27T13:33:28.511Z,30.30
2023-01-27T13:36:05.825Z,35.53
2023-01-27T13:38:50.302Z,26.37
2023-01-27T13:41:29.636Z,29.43
2023-01-27T13:44:07.446Z,24.13
2023-01-27T13:46:40.826Z,30.27
2023-01-27T13:49:31.497Z,24.70
2023-01-27T13:52:01.963Z,23.67
2023-01-27T13:54:32.475Z,25.83
2023-01-27T13:57:49.040Z,28.60
2023-01-27T14:00:30.608Z,25.67
2023-01-27T14:03:36.214Z,24.83
2023-01-27T14:06:26.243Z,21.77
2023-01-27T14:09:25.945Z,21.73
2023-01-27T14:12:16.943Z,20.30
2023-01-27T14:15:03.455Z,20.30
2023-01-27T14:17:41.409Z,25.63
2023-01-27T14:20:32.883Z,22.77
2023-01-27T14:23:21.435Z,18.07
2023-01-27T14:26:06.766Z,21.27
2023-01-27T14:29:05.764Z,21.80
2023-01-27T14:31:49.725Z,16.57
2023-01-27T14:34:48.430Z,16.33
2023-01-27T14:37:30.099Z,18.10
2023-01-27T14:40:18.633Z,17.70
2023-01-27T14:43:12.828Z,15.40
2023-01-27T14:45:50.742Z,18.63
2023-01-27T14:48:44.441Z,15.90
2023-01-27T14:51:29.170Z,16.60
2023-01-27T14:54:33.057Z,14.47
2023-01-27T14:57:26.718Z,13.33
2023-01-27T15:00:41.402Z,15.77
2023-01-27T15:03:52.285Z,15.83
2023-01-27T15:06:34.484Z,16.30
2023-01-27T15:09:16.481Z,15.60
2023-01-27T15:12:24.318Z,15.20
2023-01-27T15:15:29.360Z,15.80
2023-01-27T15:18:25.017Z,16.77
2023-01-27T15:21:32.248Z,18.03
2023-01-27T15:24:28.277Z,15.50
2023-01-27T15:26:58.771Z,14.67
2023-01-27T15:29:31.868Z,14.33
2023-01-27T15:32:28.482Z,15.70
2023-01-27T15:35:41.175Z,14.07
2023-01-27T15:38:35.422Z,12.73
2023-01-27T15:41:11.166Z,13.37
2023-01-27T15:43:44.260Z,13.67
2023-01-27T15:46:29.477Z,12.57
2023-01-27T15:49:01.811Z,15.30
2023-01-27T15:51:37.809Z,14.07
2023-01-27T15:54:11.527Z,15.43
2023-01-27T15:56:51.045Z,15.00
2023-01-27T15:59:25.617Z,12.47
2023-01-27T16:02:16.422Z,13.77
2023-01-27T16:04:46.156Z,15.20
2023-01-27T16:07:30.571Z,14.60
2023-01-27T16:10:01.119Z,12.60
2023-01-27T16:12:45.242Z,12.97
2023-01-27T16:15:40.967Z,11.57
2023-01-27T16:18:44.727Z,11.47
2023-01-27T16:21:39.303Z,13.33
2023-01-27T16:24:25.024Z,10.97
2023-01-27T16:27:05.259Z,9.80
2023-01-27T16:29:42.824Z,10.27
2023-01-27T16:32:18.834Z,9.30
2023-01-27T16:34:53.010Z,10.83
2023-01-27T16:37:28.095Z,10.43
2023-01-27T16:47:59.225Z,13.40
2023-01-27T16:50:36.875Z,12.77
2023-01-27T16:53:08.438Z,13.90
2023-01-27T16:55:36.172Z,13.57
2023-01-27T16:58:03.980Z,12.57
2023-01-27T17:00:36.179Z,10.50
2023-01-27T17:03:14.322Z,11.60
2023-01-27T17:10:33.723Z,11.97
2023-01-27T17:13:02.829Z,12.23
2023-01-27T17:15:37.938Z,13.60
2023-01-27T17:18:11.481Z,15.53
2023-01-27T17:20:45.907Z,14.83
2023-01-27T17:23:22.874Z,14.57
2023-01-27T17:33:36.069Z,17.07
2023-01-27T17:36:10.716Z,16.80
2023-01-27T17:38:46.877Z,15.27
2023-01-27T17:41:34.410Z,20.13
2023-01-27T17:44:09.613Z,19.23
2023-01-27T17:46:38.158Z,19.23
2023-01-27T17:49:13.804Z,20.40
2023-01-27T17:54:25.792Z,23.10
2023-01-27T17:57:05.710Z,27.93
2023-01-27T17:59:36.030Z,20.63
2023-01-27T18:02:16.894Z,23.83
2023-01-27T18:04:46.210Z,23.83
2023-01-27T18:07:20.922Z,26.80
2023-01-27T18:13:40.003Z,25.77
2023-01-27T18:16:17.597Z,24.17
2023-01-27T18:18:46.407Z,24.87
2023-01-27T18:21:23.895Z,29.63
2023-01-27T18:23:55.011Z,29.13
2023-01-27T18:26:26.526Z,27.73
2023-01-27T18:43:07.452Z,33.47
2023-01-27T18:45:36.102Z,32.53
2023-01-27T18:48:11.398Z,34.00
2023-01-27T18:50:43.360Z,34.37
2023-01-27T18:53:16.548Z,30.47
2023-01-27T18:55:45.946Z,31.63
2023-01-27T18:58:17.970Z,29.93
2023-01-27T19:00:52.462Z,35.80
2023-01-27T19:03:26.690Z,30.80
2023-01-27T19:05:55.834Z,33.27
2023-01-27T19:08:26.346Z,31.53
2023-01-27T19:10:55.252Z,32.53
2023-01-27T19:13:26.233Z,31.17
2023-01-27T19:15:59.350Z,32.93
2023-01-27T19:18:33.575Z,34.37
2023-01-27T19:21:03.104Z,34.53
2023-01-27T19:23:32.515Z,33.17
2023-01-27T19:26:06.393Z,35.07
2023-01-27T19:28:39.190Z,36.67
2023-01-27T19:31:09.150Z,34.53
2023-01-27T19:33:39.045Z,34.20
2023-01-27T19:36:22.755Z,31.33
2023-01-27T19:39:00.929Z,33.73
2023-01-27T19:41:30.419Z,31.83
2023-01-27T19:44:02.233Z,32.13
2023-01-27T19:46:35.289Z,34.77
2023-01-27T19:49:04.615Z,31.63
2023-01-27T19:51:34.864Z,35.73
2023-01-27T19:54:05.993Z,34.97
2023-01-27T19:56:35.897Z,33.23
2023-01-27T20:04:08.464Z,35.40
2023-01-27T20:06:36.884Z,35.80
2023-01-27T20:09:06.047Z,35.33
2023-01-27T20:11:38.040Z,35.97
2023-01-27T20:14:13.362Z,38.57
2023-01-27T20:16:43.167Z,39.70
2023-01-27T20:19:18.264Z,39.40
2023-01-27T20:21:50.321Z,39.50
2023-01-27T20:24:21.715Z,42.00
2023-01-27T20:26:52.591Z,43.37
2023-01-27T20:29:22.172Z,39.57
2023-01-27T20:31:52.911Z,44.20
2023-01-27T20:34:24.959Z,42.47
2023-01-27T20:36:54.768Z,45.00
2023-01-27T20:39:24.640Z,41.70
2023-01-27T20:41:55.119Z,45.13
2023-01-27T20:44:25.082Z,41.17
2023-01-27T20:46:55.494Z,45.93
2023-01-27T20:49:26.988Z,41.37
2023-01-27T20:51:57.142Z,49.13
2023-01-27T20:54:27.187Z,48.27
2023-01-27T20:56:57.025Z,46.70
2023-01-27T20:59:26.612Z,48.37
2023-01-27T21:01:56.421Z,49.87
2023-01-27T21:04:28.500Z,46.00
2023-01-27T21:06:59.145Z,52.37
2023-01-27T21:09:28.186Z,49.30
2023-01-27T21:11:57.183Z,49.37
2023-01-27T21:14:32.047Z,49.70
2023-01-27T21:17:00.846Z,46.53
2023-01-27T21:19:31.045Z,47.13
2023-01-27T21:22:00.275Z,44.80
2023-01-27T21:24:29.127Z,46.50
2023-01-27T21:26:58.067Z,41.63
2023-01-27T21:29:27.059Z,43.07
2023-01-27T21:31:55.876Z,40.67
2023-01-27T21:34:25.896Z,45.57
2023-01-27T21:36:56.050Z,41.90
2023-01-27T21:39:25.378Z,42.90
2023-01-27T21:42:11.876Z,41.70
2023-01-27T21:44:57.912Z,44.30
2023-01-27T21:47:26.620Z,44.07
2023-01-27T21:50:09.111Z,44.20
2023-01-27T21:52:42.313Z,40.63
2023-01-27T21:55:14.222Z,41.70
2023-01-27T21:57:45.585Z,36.67
2023-01-27T22:00:16.737Z,41.13
2023-01-27T22:02:45.881Z,42.33
2023-01-27T22:05:15.012Z,38.80
2023-01-27T22:07:45.369Z,43.53
2023-01-27T22:10:18.335Z,42.70
2023-01-27T22:12:49.340Z,39.77
2023-01-27T22:15:21.214Z,40.53
2023-01-27T22:17:50.356Z,39.00
2023-01-27T22:20:20.531Z,40.93
2023-01-27T22:22:52.298Z,40.30
2023-01-27T22:25:21.806Z,40.20
2023-01-27T22:27:50.558Z,38.43
2023-01-27T22:30:20.659Z,43.17
2023-01-27T22:32:49.951Z,38.13
2023-01-27T22:35:19.999Z,43.43
2023-01-27T22:37:50.255Z,38.30
2023-01-27T22:40:19.667Z,37.13
2023-01-27T22:42:50.655Z,38.87
2023-01-27T22:45:19.658Z,39.43
2023-01-27T22:47:49.541Z,36.07
2023-01-27T22:50:19.484Z,43.13
2023-01-27T22:52:50.105Z,38.17
2023-01-27T22:55:20.385Z,40.57
2023-01-27T22:57:49.171Z,44.37
2023-01-27T23:00:18.969Z,40.17
2023-01-27T23:02:47.692Z,38.37
2023-01-27T23:05:17.006Z,40.20
2023-01-27T23:07:49.228Z,41.13
2023-01-27T23:10:18.833Z,41.53
2023-01-27T23:12:47.501Z,36.27
2023-01-27T23:15:16.680Z,36.70
2023-01-27T23:17:45.865Z,35.93
2023-01-27T23:20:15.081Z,37.60
2023-01-27T23:22:43.977Z,35.57
2023-01-27T23:25:14.844Z,34.73
2023-01-27T23:27:43.959Z,35.50
2023-01-27T23:30:14.034Z,36.20
2023-01-27T23:32:42.835Z,37.43
2023-01-27T23:35:11.997Z,37.70
2023-01-27T23:37:40.786Z,36.47
2023-01-27T23:40:11.806Z,35.03
2023-01-27T23:42:42.341Z,34.43
2023-01-27T23:45:12.299Z,33.80
2023-01-27T23:47:41.259Z,31.13
2023-01-27T23:50:20.805Z,27.80
2023-01-27T23:52:52.746Z,27.43
2023-01-27T23:55:21.503Z,21.77
2023-01-27T23:57:51.739Z,21.73
